Yakima, WA (98909)

10:46 AM PDT on September 02, 2014 (GMT -0700)
3 Miles West of Wiley City | Change Station
CLOSE
Current Station
Personal Weather Station
Location: Yakima, WA
Elevation: 1529 ft
Nearby Weather Stations
Active Advisory: Special Statement

Elev 1529 ft 46.54 °N, 120.71 °W | Updated 6 seconds ago

Clear
Clear
72.0 °F
Feels Like 77 °F
N
0.0
Wind Variable Wind from NNE
Gusts 0.0 mph

Today
High -- | Low -- °F
--% Chance of Precip.
Yesterday
High -- | Low -- °F
Precip. -- in
6:24 AM 7:39 PM
First Quarter, 53% visible
Pressure 29.83 in
Visibility 10.0 miles
Clouds Clear
Heat Index 77 °F
Dew Point 48 °F
Humidity 43%
Rainfall 0.00 in
Snow Depth Not available.
UV 4 out of 12
Pollen 4.30 out of 12
Air Quality Not available.
Flu Activity Not available.
METAR KYKM 021653Z 03003KT 10SM CLR 21/08 A2985 RMK AO2 SLP101 T02110083

More Conditions Fewer Conditions

Pressure 29.83 in
Visibility 10.0 miles
Clouds Clear
Heat Index 77 °F
Dew Point 48 °F
Humidity 43%
Rainfall 0.00 in
Snow Depth Not available.
UV 4 out of 12
Pollen 4.30 out of 12
Air Quality Not available.
Flu Activity Not available.
METAR KYKM 021653Z 03003KT 10SM CLR 21/08 A2985 RMK AO2 SLP101 T02110083

More Conditions Fewer Conditions

10-Day Weather Forecast

Almanac

Astronomy

Sep. 02, 2014 Rise Set
Actual Time 6:24 AM PDT 7:39 PM PDT
Civil Twilight 5:52 AM PDT 8:10 PM PDT
Nautical Twilight 5:15 AM PDT 8:47 PM PDT
Astronomical Twilight 4:35 AM PDT 9:27 PM PDT
Moon 2:38 PM PDT No Moon Set
Length of Visible Light 14h 17m
Length of Day
13h 15m
Tomorrow will be 3m 13s shorter.
First Quarter, 53% of the Moon is Illuminated
Today
First Quarter
Sep 8
Full
Sep 15
Last Quarter
Sep 24
New
Oct 1
First Quarter

Today's Extremes

State Highs State Lows

Community

WunderPhotos

Upload Photos

1,749,724 photos uploaded!

WunderBlogs® & News

Nearby

Snow Depth

Station Depth Elevation
Lost Horse 0 in 5000 ft
Potato Hill 0 in 4500 ft
Trough 0 in 5300 ft
Grouse Camp 0 in 5380 ft
Upper Wheeler 0 in 4400 ft

Earthquake Activity

City Distance Mag. Time & Date
No recent earthquake activity has been reported nearby.
Minimum magnitude displayed is 2.5.

Coastal Water Temperatures

Place Temperature
No Stations Reporting

Nearby Weather Stations